JZA169 CYVR-CYYJ
Flight info
| Callsign | JZA169 |
|---|---|
| Flight time | 0h 20m |
| Altitude | 13000 |
| Route | AMEBO APASS8 |
| Aircraft | DH8D/M-SDE2E3FGRY/H |
Departure
| Time | 2026-05-08 05:42 |
|---|---|
| Airport | Vancouver International Airport (CYVR) |
Arrival
| Time | 2026-05-08 06:02 |
|---|---|
| Airport | Victoria International Airport (CYYJ) |
| Time | Latitude | Longitude | Altitude | Speed | Heading |
|---|---|---|---|---|---|
| 2026-05-08 05:19 | 49.19128 | -123.17947 | 20 ft | 0 kts | 34° |
| 2026-05-08 05:34 | 49.19102 | -123.17979 | 20 ft | 4 kts | 53° |
| 2026-05-08 05:34 | 49.19087 | -123.18037 | 20 ft | 4 kts | 104° |
| 2026-05-08 05:34 | 49.19100 | -123.18079 | 20 ft | 0 kts | 107° |
| 2026-05-08 05:35 | 49.19102 | -123.18088 | 20 ft | 1 kts | 107° |
| 2026-05-08 05:35 | 49.19083 | -123.18045 | 20 ft | 6 kts | 148° |
| 2026-05-08 05:35 | 49.18967 | -123.18066 | 20 ft | 19 kts | 191° |
| 2026-05-08 05:36 | 49.18922 | -123.18134 | 20 ft | 9 kts | 276° |
| 2026-05-08 05:36 | 49.18932 | -123.18237 | 20 ft | 10 kts | 278° |
| 2026-05-08 05:36 | 49.18944 | -123.18343 | 20 ft | 10 kts | 280° |
| 2026-05-08 05:36 | 49.18961 | -123.18446 | 20 ft | 9 kts | 300° |
| 2026-05-08 05:37 | 49.19011 | -123.18515 | 20 ft | 13 kts | 322° |
| 2026-05-08 05:37 | 49.19097 | -123.18617 | 20 ft | 15 kts | 321° |
| 2026-05-08 05:37 | 49.19207 | -123.18750 | 18 ft | 20 kts | 322° |
| 2026-05-08 05:37 | 49.19307 | -123.18870 | 17 ft | 12 kts | 322° |
| 2026-05-08 05:38 | 49.19362 | -123.18963 | 17 ft | 11 kts | 279° |
| 2026-05-08 05:38 | 49.19347 | -123.19107 | 17 ft | 17 kts | 259° |
| 2026-05-08 05:38 | 49.19326 | -123.19280 | 17 ft | 15 kts | 259° |
| 2026-05-08 05:38 | 49.19307 | -123.19432 | 17 ft | 13 kts | 259° |
| 2026-05-08 05:39 | 49.19290 | -123.19568 | 17 ft | 12 kts | 259° |
| 2026-05-08 05:39 | 49.19276 | -123.19682 | 19 ft | 9 kts | 259° |
| 2026-05-08 05:39 | 49.19260 | -123.19813 | 20 ft | 15 kts | 259° |
| 2026-05-08 05:39 | 49.19241 | -123.19965 | 20 ft | 13 kts | 259° |
| 2026-05-08 05:40 | 49.19220 | -123.20132 | 22 ft | 17 kts | 259° |
| 2026-05-08 05:40 | 49.19200 | -123.20295 | 23 ft | 14 kts | 259° |
| 2026-05-08 05:40 | 49.19163 | -123.20420 | 23 ft | 11 kts | 195° |
| 2026-05-08 05:40 | 49.19091 | -123.20441 | 23 ft | 9 kts | 190° |
| 2026-05-08 05:41 | 49.19033 | -123.20457 | 23 ft | 7 kts | 190° |
| 2026-05-08 05:41 | 49.18977 | -123.20458 | 23 ft | 9 kts | 137° |
| 2026-05-08 05:41 | 49.18968 | -123.20425 | 23 ft | 0 kts | 99° |
| 2026-05-08 05:41 | 49.18959 | -123.20343 | 23 ft | 41 kts | 101° |
| 2026-05-08 05:42 | 49.18855 | -123.19422 | 18 ft | 128 kts | 99° |
| 2026-05-08 05:42 | 49.18680 | -123.17909 | 302 ft | 156 kts | 102° |
| 2026-05-08 05:42 | 49.18510 | -123.16225 | 944 ft | 169 kts | 99° |
| 2026-05-08 05:42 | 49.18270 | -123.14435 | 1707 ft | 177 kts | 109° |
| 2026-05-08 05:43 | 49.17741 | -123.12747 | 2514 ft | 182 kts | 126° |
| 2026-05-08 05:43 | 49.16651 | -123.11892 | 3244 ft | 189 kts | 178° |
| 2026-05-08 05:43 | 49.15380 | -123.12343 | 4066 ft | 193 kts | 197° |
| 2026-05-08 05:43 | 49.14128 | -123.12995 | 4914 ft | 195 kts | 198° |
| 2026-05-08 05:44 | 49.12830 | -123.13705 | 5544 ft | 210 kts | 199° |
| 2026-05-08 05:44 | 49.11350 | -123.14542 | 5814 ft | 240 kts | 200° |
| 2026-05-08 05:44 | 49.09700 | -123.15501 | 5950 ft | 265 kts | 200° |
| 2026-05-08 05:44 | 49.08036 | -123.16473 | 5952 ft | 248 kts | 200° |
| 2026-05-08 05:45 | 49.06472 | -123.17395 | 5971 ft | 239 kts | 201° |
| 2026-05-08 05:45 | 49.04930 | -123.18317 | 5981 ft | 235 kts | 201° |
| 2026-05-08 05:45 | 49.03421 | -123.19228 | 5984 ft | 233 kts | 201° |
| 2026-05-08 05:45 | 49.01912 | -123.20143 | 5984 ft | 231 kts | 201° |
| 2026-05-08 05:46 | 49.00422 | -123.21049 | 5980 ft | 230 kts | 201° |
| 2026-05-08 05:46 | 48.98951 | -123.21948 | 5979 ft | 228 kts | 201° |
| 2026-05-08 05:46 | 48.97475 | -123.22849 | 5986 ft | 227 kts | 201° |
| 2026-05-08 05:46 | 48.96021 | -123.23739 | 5980 ft | 225 kts | 201° |
| 2026-05-08 05:47 | 48.94575 | -123.24625 | 5983 ft | 224 kts | 201° |
| 2026-05-08 05:47 | 48.93127 | -123.25512 | 5983 ft | 222 kts | 201° |
| 2026-05-08 05:47 | 48.91690 | -123.26392 | 5980 ft | 221 kts | 201° |
| 2026-05-08 05:47 | 48.90273 | -123.27260 | 5984 ft | 220 kts | 201° |
| 2026-05-08 05:48 | 48.88853 | -123.28130 | 5984 ft | 219 kts | 201° |
| 2026-05-08 05:48 | 48.87457 | -123.29047 | 5977 ft | 218 kts | 209° |
| 2026-05-08 05:48 | 48.86259 | -123.30418 | 5981 ft | 216 kts | 221° |
| 2026-05-08 05:48 | 48.85144 | -123.31918 | 5981 ft | 215 kts | 221° |
| 2026-05-08 05:49 | 48.84029 | -123.33418 | 5979 ft | 213 kts | 221° |
| 2026-05-08 05:49 | 48.82928 | -123.34897 | 5973 ft | 212 kts | 221° |
| 2026-05-08 05:49 | 48.81824 | -123.36373 | 5976 ft | 211 kts | 221° |
| 2026-05-08 05:49 | 48.80721 | -123.37844 | 5979 ft | 210 kts | 221° |
| 2026-05-08 05:50 | 48.79625 | -123.39309 | 5976 ft | 209 kts | 221° |
| 2026-05-08 05:50 | 48.78542 | -123.40752 | 5976 ft | 208 kts | 221° |
| 2026-05-08 05:50 | 48.77458 | -123.42185 | 5976 ft | 207 kts | 221° |
| 2026-05-08 05:50 | 48.76372 | -123.43621 | 5974 ft | 206 kts | 221° |
| 2026-05-08 05:51 | 48.75351 | -123.45138 | 5965 ft | 205 kts | 237° |
| 2026-05-08 05:51 | 48.75066 | -123.47141 | 5972 ft | 196 kts | 280° |
| 2026-05-08 05:51 | 48.75392 | -123.49139 | 5976 ft | 194 kts | 287° |
| 2026-05-08 05:51 | 48.75755 | -123.51100 | 5978 ft | 193 kts | 287° |
| 2026-05-08 05:52 | 48.76122 | -123.53059 | 5975 ft | 193 kts | 287° |
| 2026-05-08 05:52 | 48.76487 | -123.54999 | 5973 ft | 192 kts | 287° |
| 2026-05-08 05:52 | 48.76857 | -123.56962 | 5978 ft | 191 kts | 287° |
| 2026-05-08 05:52 | 48.77217 | -123.58873 | 5980 ft | 190 kts | 287° |
| 2026-05-08 05:53 | 48.77578 | -123.60791 | 5979 ft | 189 kts | 287° |
| 2026-05-08 05:53 | 48.77941 | -123.62718 | 5975 ft | 188 kts | 287° |
| 2026-05-08 05:53 | 48.78299 | -123.64616 | 5978 ft | 188 kts | 287° |
| 2026-05-08 05:53 | 48.78661 | -123.66542 | 5845 ft | 194 kts | 287° |
| 2026-05-08 05:54 | 48.79029 | -123.68520 | 5583 ft | 196 kts | 286° |
| 2026-05-08 05:54 | 48.79406 | -123.70546 | 5281 ft | 200 kts | 286° |
| 2026-05-08 05:54 | 48.79789 | -123.72600 | 4956 ft | 206 kts | 286° |
| 2026-05-08 05:54 | 48.80079 | -123.74709 | 4661 ft | 208 kts | 269° |
| 2026-05-08 05:55 | 48.79540 | -123.76657 | 4445 ft | 200 kts | 221° |
| 2026-05-08 05:55 | 48.78361 | -123.77552 | 4362 ft | 188 kts | 197° |
| 2026-05-08 05:55 | 48.77138 | -123.78123 | 4306 ft | 178 kts | 196° |
| 2026-05-08 05:55 | 48.75986 | -123.78682 | 4192 ft | 171 kts | 197° |
| 2026-05-08 05:56 | 48.74870 | -123.79233 | 4028 ft | 167 kts | 197° |
| 2026-05-08 05:56 | 48.73726 | -123.79683 | 3880 ft | 173 kts | 181° |
| 2026-05-08 05:56 | 48.72576 | -123.79217 | 3768 ft | 174 kts | 146° |
| 2026-05-08 05:56 | 48.71777 | -123.77899 | 3745 ft | 172 kts | 117° |
| 2026-05-08 05:57 | 48.71331 | -123.76225 | 3738 ft | 171 kts | 107° |
| 2026-05-08 05:57 | 48.70982 | -123.74527 | 3743 ft | 170 kts | 106° |
| 2026-05-08 05:57 | 48.70638 | -123.72798 | 3739 ft | 169 kts | 105° |
| 2026-05-08 05:57 | 48.70311 | -123.71115 | 3775 ft | 166 kts | 105° |
| 2026-05-08 05:58 | 48.69990 | -123.69434 | 3668 ft | 168 kts | 106° |
| 2026-05-08 05:58 | 48.69660 | -123.67693 | 3453 ft | 175 kts | 106° |
| 2026-05-08 05:58 | 48.69331 | -123.65940 | 3184 ft | 172 kts | 106° |
| 2026-05-08 05:58 | 48.69012 | -123.64221 | 2908 ft | 169 kts | 106° |
| 2026-05-08 05:59 | 48.68695 | -123.62523 | 2691 ft | 162 kts | 106° |
| 2026-05-08 05:59 | 48.68391 | -123.60915 | 2469 ft | 159 kts | 106° |
| 2026-05-08 05:59 | 48.68087 | -123.59312 | 2231 ft | 156 kts | 105° |
| 2026-05-08 05:59 | 48.67790 | -123.57749 | 2007 ft | 153 kts | 105° |
| 2026-05-08 06:00 | 48.67501 | -123.56220 | 1786 ft | 150 kts | 105° |
| 2026-05-08 06:00 | 48.67214 | -123.54716 | 1608 ft | 153 kts | 105° |
| 2026-05-08 06:00 | 48.66906 | -123.53117 | 1406 ft | 162 kts | 105° |
| 2026-05-08 06:00 | 48.66590 | -123.51452 | 1180 ft | 170 kts | 105° |
| 2026-05-08 06:01 | 48.66285 | -123.49792 | 922 ft | 157 kts | 105° |
| 2026-05-08 06:01 | 48.65997 | -123.48253 | 740 ft | 148 kts | 106° |
| 2026-05-08 06:01 | 48.65722 | -123.46806 | 518 ft | 141 kts | 106° |
| 2026-05-08 06:01 | 48.65456 | -123.45406 | 302 ft | 136 kts | 105° |
| 2026-05-08 06:02 | 48.65196 | -123.44020 | 125 ft | 136 kts | 107° |
| 2026-05-08 06:02 | 48.64966 | -123.42815 | 75 ft | 76 kts | 105° |
| 2026-05-08 06:02 | 48.64885 | -123.42397 | 74 ft | 29 kts | 107° |
| 2026-05-08 06:02 | 48.64837 | -123.42146 | 73 ft | 21 kts | 105° |
| 2026-05-08 06:03 | 48.64782 | -123.42024 | 73 ft | 10 kts | 210° |
| 2026-05-08 06:03 | 48.64737 | -123.42103 | 73 ft | 6 kts | 231° |
| 2026-05-08 06:03 | 48.64721 | -123.42152 | 73 ft | 4 kts | 282° |
| 2026-05-08 06:03 | 48.64732 | -123.42208 | 73 ft | 11 kts | 286° |
| 2026-05-08 06:04 | 48.64761 | -123.42349 | 73 ft | 13 kts | 285° |
| 2026-05-08 06:04 | 48.64785 | -123.42481 | 72 ft | 12 kts | 285° |
| 2026-05-08 06:04 | 48.64809 | -123.42602 | 72 ft | 11 kts | 285° |
| 2026-05-08 06:04 | 48.64802 | -123.42708 | 72 ft | 10 kts | 239° |
| 2026-05-08 06:05 | 48.64732 | -123.42820 | 70 ft | 21 kts | 224° |
| 2026-05-08 06:05 | 48.64608 | -123.43001 | 69 ft | 24 kts | 223° |
| 2026-05-08 06:05 | 48.64496 | -123.43167 | 66 ft | 21 kts | 224° |
| 2026-05-08 06:05 | 48.64404 | -123.43302 | 66 ft | 16 kts | 223° |
| 2026-05-08 06:06 | 48.64326 | -123.43416 | 64 ft | 14 kts | 224° |
| 2026-05-08 06:06 | 48.64250 | -123.43480 | 63 ft | 11 kts | 161° |
| 2026-05-08 06:06 | 48.64217 | -123.43407 | 66 ft | 5 kts | 99° |
| 2026-05-08 06:06 | 48.64212 | -123.43353 | 68 ft | 8 kts | 98° |
| 2026-05-08 06:07 | 48.64188 | -123.43295 | 69 ft | 6 kts | 181° |
| 2026-05-08 06:07 | 48.64148 | -123.43304 | 69 ft | 6 kts | 189° |
| 2026-05-08 06:07 | 48.64140 | -123.43307 | 70 ft | 0 kts | 189° |